x

Half Moon Bay - 24nm Ssw Of San Francisco, Ca (46012) Wave Buoy

7:50am - Fri 28th Apr 2017 All times are PDT. -7 hours from GMT.

  • Sig Wave height 11.2ft
  • Swell Direction
  • Peak Period 8s
  • Average Period 7s
  • Wind
    29mph, 36mph gusts
  • Sea Temp 54°f
  • Air Temp 53°f
  • Sea Pressure 1017.9mb
  • Half Moon Bay - 24nm Ssw Of San Francisco, Ca
  • Half Moon Bay - 24nm Ssw Of San Francisco, Ca

More Historic Weather Station data

Upgrade to MSW Pro to gain access to the past 30 days of data for over 8000 Wavebouys and Weather Stations around the globe.

Join Pro

Comparision Forecast

View Surf forecast
   
Fri 04/28 7:50am 11ft 8s 7s 29 36 mph 1017.9mb 54f 53f
6:50am 10ft 8s 7s 29 36 mph 1017.2mb 54f 53f
4:50am 10.5ft 8s  -  29 36 mph 1016.6mb 54f 54f
3:50am 11ft 8s 7s 29 36 mph 1016.2mb 53f 53f
2:50am 10ft 8s 7s 27 34 mph 1016.5mb 53f 53f
1:50am 10ft 7s 6s 29 36 mph 1016.5mb 52f 53f
12:50am 9ft 7s 6s 29 34 mph 1016.5mb 52f 53f
Thu 04/27 11:50pm 10ft 8s 6s 29 34 mph 1016.9mb 52f 54f
10:50pm 10.5ft 8s 6s 27 31 mph 1017.5mb 52f 54f
9:50pm 10.5ft 8s 6s 29 38 mph 1016.9mb 53f 54f
8:50pm 10.5ft 8s 6s 31 40 mph 1017mb 53f 55f
7:50pm 10.5ft 8s 6s 31 38 mph 1016.7mb 53f 55f
6:50pm 10ft 8s 6s 27 34 mph 1016.9mb 53f 56f
4:50pm 9.5ft 8s 7s 27 31 mph 1016.9mb 54f 56f
3:50pm 9ft 8s 7s 25 31 mph 1017.7mb 54f 55f
2:50pm 10ft 8s 7s 25 31 mph 1017.7mb 54f 55f
1:50pm 9.5ft 8s 7s 22 27 mph 1018.2mb 54f 54f
12:50pm 10ft 8s 7s 27 34 mph 1018.6mb 54f 55f
11:50am 9.5ft 8s 7s 20 27 mph 1018.9mb 54f 54f
10:50am 10ft 8s 7s 22 27 mph 1018.7mb 53f 55f
9:50am 10ft 8s 7s 20 22 mph 1018.5mb 53f 54f
8:50am 11ft 8s 7s 25 31 mph 1017.9mb 53f 55f
7:50am 10ft 8s 6s 22 27 mph 1017mb 53f 54f
6:50am 10ft 8s 7s 27 34 mph 1016.4mb 54f 54f
5:50am 10.5ft 8s 7s 27 31 mph 1016.1mb 54f 54f
4:50am 9.5ft 7s 6s 29 34 mph 1016.4mb 54f 54f
3:50am 9ft 7s 6s 29 36 mph 1016.4mb 55f 54f
2:50am 8ft 7s 6s 25 29 mph 1016.5mb 56f 54f
1:50am 7ft 11s 6s 29 36 mph 1016.9mb 56f 55f
12:50am 7.5ft 9s 6s 25 31 mph 1017.3mb 56f 54f
Wed 04/26 11:50pm 6ft 11s 6s 27 31 mph 1017.4mb 56f 55f
10:50pm 6ft 10s 6s 18 22 mph 1017.8mb 57f 55f
9:50pm 6ft 10s 7s 18 25 mph 1018.4mb 57f 56f
8:50pm 6ft 10s 7s 16 22 mph 1017.4mb 57f 56f
7:50pm 6ft 9s 7s 13 16 mph 1017.3mb 57f 56f
6:50pm 5.5ft 9s 7s 13 18 mph 1017.4mb 57f 56f
4:50pm 5ft 8s 7s 11 16 mph 1017.7mb 57f 57f
3:50pm 5ft 9s 7s 13 16 mph 1017.9mb 57f 57f
2:50pm 5ft 9s 7s 11
mph
1018.3mb 57f 57f
1:50pm 5ft 8s 7s 9 11 mph 1018.4mb 57f 57f
12:50pm 5ft 17s 7s 9 11 mph 1018.6mb 57f 57f
11:50am 5ft 8s 7s 7
mph
1018.6mb 57f 56f
10:50am 4.5ft 10s 7s 7
mph
1018.3mb 57f 57f
9:50am 4.5ft 9s 7s 4 7 mph 1018mb 57f 56f
8:50am 4.5ft 9s 7s 7
mph
1017.9mb 57f 56f
7:50am 5ft 9s 7s 7
mph
1017.6mb 56f 56f
6:50am 5ft 9s 7s 9
mph
1017.8mb 57f 56f
5:50am 4.5ft 10s 7s 9
mph
1017.6mb 56f 56f
4:50am 5ft 8s 7s 9 11 mph 1017.8mb 56f 56f
3:50am 5.5ft 10s 8s 7
mph
1017.8mb 56f 56f
2:50am 5ft 8s 7s 9
mph
1018.4mb 56f 56f
1:50am 5.5ft 9s 8s 7
mph
1018.7mb 56f 56f
12:50am 5ft 11s 8s 7 9 mph 1019.3mb 56f 56f
Tue 04/25 11:50pm 5ft 11s 8s 4
mph
1019.3mb 56f 56f
10:50pm 5ft 10s 8s 4
mph
1019.8mb 56f 56f
9:50pm 6ft 10s 8s 7 9 mph 1019.7mb 56f 56f
8:50pm 5.5ft 10s 7s 9 11 mph 1019.6mb 56f 56f
7:50pm 6ft 10s 8s 9 11 mph 1019.3mb 56f 56f
6:50pm 6.5ft 10s 7s 11 13 mph 1019.6mb 56f 56f
5:50pm 5.5ft 9s 7s 11 13 mph 1019.5mb 56f 57f
4:50pm 6ft 9s 7s 13 16 mph 1019.3mb 57f 56f
3:50pm 6.5ft 10s 7s 13 16 mph 1019.8mb 57f 56f
2:50pm 6.5ft 10s 7s 13 16 mph 1019.8mb 57f 56f
1:50pm 7ft 11s 7s 9 13 mph 1020.2mb 56f 56f
12:50pm 7ft 11s 7s 11 13 mph 1020mb 56f 55f
11:50am 7ft 10s 7s 11 13 mph 1020.3mb 56f 55f
10:50am 6.5ft 11s 7s 11 16 mph 1019.8mb 56f 55f
9:50am 7ft 10s 8s 13 16 mph 1019.8mb 56f 55f
8:50am 6ft 11s 7s 11 13 mph 1019mb 56f 55f
7:50am 6.5ft 10s 7s 11 16 mph 1018.8mb 56f 55f
6:50am 7ft 11s 7s 11 13 mph 1018.1mb 56f 55f
5:50am 8ft 11s 7s 16 18 mph 1017.6mb 56f 55f
4:50am 8ft 11s 7s 13 18 mph 1018.3mb 56f 55f
3:50am 8ft 11s  -  16 18 mph 1018.2mb 56f 55f
2:50am 8ft 12s 7s 11 16 mph 1018.6mb 56f 55f
1:50am 8.5ft 10s 7s 13 18 mph 1018.7mb 56f 55f
12:50am 8.5ft 11s 7s 22 25 mph 1018.2mb 56f 55f
Mon 04/24 11:50pm 8ft 12s 7s 18 25 mph 1018.1mb 56f 55f
10:50pm 7ft 11s 7s 18 22 mph 1018.2mb 56f 55f
9:50pm 7.5ft 12s 8s 13 18 mph 1018.8mb 56f 55f
8:50pm 7ft 11s 8s 16 18 mph 1018.1mb 56f 55f
7:50pm 7ft 12s 8s 16 20 mph 1017.9mb 57f 56f
6:50pm 6.5ft 11s 8s 13 18 mph 1018mb 57f 56f
5:50pm 6ft 12s 8s 13 18 mph 1018mb 57f 56f
4:50pm 5.5ft 12s 8s 13 16 mph 1018.1mb 58f 56f